Latest Weather Observations for Cloncurry

IDQ60801

Issued at 5:32 pm EST Friday 30 January 2015 (issued every 30 minutes, with the page automatically refreshed every 10 minutes)

About weather observations | Map of weather stations | Latest weather observations for QLD | Other Formats
Station Details ID: 029141 Name: CLONCURRY AIRPORT Lat: -20.67 Lon: 140.50 Height: 186.0 m
Data from the previous 72 hours. | See also: Recent months at Cloncurry
Date/Time
EST
Temp
°C
App
Temp
°C
Dew
Point
Rel
Hum
%
Delta-T
°C
Wind Press
QNH
hPa
Press
MSL
hPa
Rain
since 9 am
mm
Dir
 
Spd
km/h
Gust
km/h
Spd
kts
Gust
kts
30/05:30pm 38.6 35.2 9.2 17 17.2 SW 17 22 9 12 1002.9 1001.4 0.0
30/05:00pm 38.9 35.9 9.4 17 17.4 SW 15 20 8 11 1002.8 1001.3 0.0
30/04:30pm 38.1 35.4 8.8 17 17.0 ENE 13 17 7 9 1002.8 1001.3 0.0
30/04:00pm 38.5 37.2 10.0 18 16.9 SW 7 19 4 10 1003.1 1001.6 0.0
30/03:30pm 38.7 36.5 10.9 19 16.7 SW 13 20 7 11 1003.3 1001.8 0.0
30/03:00pm 38.3 36.0 10.6 19 16.6 SSW 13 20 7 11 1003.7 1002.2 0.0
30/02:30pm 38.2 35.8 11.3 20 16.2 SSW 15 22 8 12 1004.1 1002.6 0.0
30/02:00pm 37.3 36.6 11.3 21 15.6 SW 6 11 3 6 1004.3 1002.8 0.0
30/01:30pm 37.3 35.6 11.3 21 15.6 SSE 11 19 6 10 1004.8 1003.3 0.0
30/01:00pm 37.4 36.0 12.1 22 15.4 ESE 11 22 6 12 1005.3 1003.9 0.0
30/12:30pm 36.9 34.8 12.4 23 14.9 ESE 15 26 8 14 1005.5 1004.1 0.0
30/12:00pm 36.4 34.2 13.2 25 14.3 ESE 17 28 9 15 1006.0 1004.6 0.0
30/11:30am 36.2 35.1 14.2 26 13.7 ESE 13 19 7 10 1006.2 1004.8 0.0
30/11:00am 35.7 34.3 14.4 28 13.3 ESE 15 22 8 12 1006.4 1005.0 0.0
30/10:30am 34.9 32.8 13.7 28 13.0 E 17 26 9 14 1006.4 1005.0 0.0
30/10:00am 34.5 32.5 13.9 29 12.7 SE 17 22 9 12 1006.4 1005.0 0.0
30/09:30am 33.6 31.6 12.6 28 12.6 SE 15 19 8 10 1006.2 1004.8 0.0
30/09:00am 32.8 29.9 12.4 29 12.2 SE 19 24 10 13 1006.2 1004.8 0.0
30/08:30am 32.0 29.8 13.2 31 11.4 SSE 17 24 9 13 1006.2 1004.8 0.0
30/08:00am 30.1 29.1 13.4 36 10.1 S 11 15 6 8 1006.1 1004.7 0.0
30/07:30am 27.6 27.1 13.9 43 8.2 SSE 9 11 5 6 1005.9 1004.5 0.0
30/07:00am 25.4 24.8 13.6 48 7.0 SSE 9 11 5 6 1005.5 1004.1 0.0
30/06:30am 23.7 22.4 12.4 49 6.5 SSE 11 13 6 7 1005.1 1003.7 0.0
30/06:00am 23.9 22.5 12.2 48 6.7 SSE 11 13 6 7 1004.7 1003.2 0.0
30/05:30am 24.0 22.3 11.3 45 7.2 SSE 11 13 6 7 1004.5 1003.0 0.0
30/05:00am 24.3 22.5 10.9 43 7.6 SSE 11 13 6 7 1004.3 1002.8 0.0
30/04:30am 25.3 23.8 11.8 43 7.8 SSE 11 13 6 7 1004.3 1002.8 0.0
30/04:00am 25.6 24.4 11.7 42 8.0 SSE 9 11 5 6 1004.4 1002.9 0.0
30/03:30am 25.3 24.2 10.7 40 8.3 SSE 7 11 4 6 1004.4 1002.9 0.0
30/03:00am 26.5 25.0 11.8 40 8.5 SSE 11 13 6 7 1004.3 1002.8 0.0
30/02:30am 28.1 26.5 12.8 38 9.0 SSE 13 15 7 8 1004.4 1002.9 0.0
30/02:00am 25.7 23.9 12.2 43 7.8 S 13 17 7 9 1004.4 1002.9 0.0
30/01:30am 25.4 23.9 11.9 43 7.8 S 11 13 6 7 1004.6 1003.1 0.0
30/01:00am 26.2 25.1 11.9 41 8.3 S 9 11 5 6 1004.5 1003.0 0.0
30/12:30am 26.6 25.9 11.9 40 8.5 WSW 7 9 4 5 1004.7 1003.2 0.0
30/12:00am 27.1 26.4 12.0 39 8.8 SW 7 9 4 5 1004.9 1003.5 0.0
 
Date/Time
EST
Temp
°C
App
Temp
°C
Dew
Point
Rel
Hum
%
Delta-T
°C
Wind Press
QNH
hPa
Press
MSL
hPa
Rain
since 9 am
mm
Dir
 
Spd
km/h
Gust
km/h
Spd
kts
Gust
kts
29/11:30pm 26.8 25.9 11.3 38 8.9 SW 7 9 4 5 1005.1 1003.7 0.0
29/11:00pm 27.0 25.8 11.5 38 9.0 SW 9 11 5 6 1005.4 1004.0 0.0
29/10:30pm 27.8 26.7 10.1 33 10.0 SW 6 7 3 4 1005.4 1004.0 0.0
29/10:00pm 28.9 27.8 10.1 31 10.7 SW 6 7 3 4 1005.3 1003.9 0.0
29/09:30pm 29.2 27.5 9.8 30 11.0 SSE 9 9 5 5 1005.0 1003.6 0.0
29/09:00pm 29.5 27.6 9.1 28 11.5 SSE 9 9 5 5 1004.7 1003.2 0.0
29/08:30pm 31.2 29.5 8.2 24 12.8 SSE 7 9 4 5 1004.7 1003.2 0.0
29/08:00pm 31.0 29.9 6.8 22 13.2 SSE 2 7 1 4 1004.3 1002.8 0.0
29/07:30pm 33.1 30.9 6.4 19 14.6 SSE 7 7 4 4 1004.0 1002.5 0.0
29/07:00pm 35.3 34.1 6.6 17 16.0 SSE 2 7 1 4 1003.6 1002.1 0.0
29/06:30pm 36.0 33.4 6.2 16 16.5 SSE 9 13 5 7 1003.4 1001.9 0.0
29/06:00pm 36.7 33.5 6.8 16 16.8 SSE 13 22 7 12 1003.2 1001.7 0.0
29/05:30pm 36.8 33.8 7.8 17 16.5 SSE 13 19 7 10 1003.1 1001.6 0.0
29/05:00pm 36.7 33.7 7.7 17 16.5 SSE 13 20 7 11 1003.1 1001.6 0.0
29/04:30pm 36.9 35.5 8.7 18 16.2 SE 6 11 3 6 1003.2 1001.7 0.0
29/04:00pm 36.9 35.1 9.5 19 16.0 S 9 20 5 11 1003.2 1001.7 0.0
29/03:30pm 36.2 34.3 8.9 19 15.7 ESE 9 15 5 8 1003.6 1002.1 0.0
29/03:00pm 36.6 33.4 8.4 18 16.2 ESE 15 22 8 12 1003.8 1002.3 0.0
29/02:30pm 36.4 34.5 9.1 19 15.8 S 9 20 5 11 1004.0 1002.5 0.0
29/02:00pm 35.8 33.6 7.8 18 15.9 SSE 9 15 5 8 1004.2 1002.7 0.0
29/01:30pm 36.1 33.6 8.0 18 16.0 SSW 11 26 6 14 1004.6 1003.1 0.0
29/01:00pm 36.3 32.3 9.0 19 15.8 S 20 28 11 15 1004.9 1003.5 0.0
29/12:30pm 35.7 31.8 9.3 20 15.3 SSE 20 30 11 16 1005.3 1003.9 0.0
29/12:00pm 35.0 32.0 10.8 23 14.3 SE 17 32 9 17 1005.6 1004.2 0.0
29/11:30am 33.9 31.2 10.5 24 13.7 SE 15 20 8 11 1005.8 1004.4 0.0
29/11:00am 32.7 29.2 8.9 23 13.5 S 17 26 9 14 1006.0 1004.6 0.0
29/10:30am 31.2 26.7 7.0 22 13.2 S 20 26 11 14 1006.3 1004.9 0.0
29/10:00am 30.6 25.6 6.5 22 13.0 S 22 28 12 15 1006.4 1005.0 0.0
29/09:30am 29.2 23.7 6.0 23 12.3 S 24 35 13 19 1006.6 1005.2 0.0
29/09:00am 28.2 22.5 5.1 23 12.0 SSW 24 30 13 16 1006.3 1004.9 0.0
29/08:30am 27.0 20.9 4.7 24 11.4 SSW 26 35 14 19 1005.8 1004.4 0.0
29/08:00am 25.5 20.5 4.6 26 10.6 SSW 20 28 11 15 1005.5 1004.1 0.0
29/07:30am 24.3 19.1 3.6 26 10.2 SSW 20 24 11 13 1005.4 1004.0 0.0
29/07:00am 23.1 18.3 2.6 26 9.9 SSW 17 24 9 13 1005.2 1003.8 0.0
29/06:30am 22.6 17.7 2.1 26 9.7 SSW 17 22 9 12 1005.1 1003.7 0.0
29/06:00am 22.8 17.6 2.3 26 9.8 SSW 19 24 10 13 1004.9 1003.5 0.0
29/05:30am 23.0 17.8 2.5 26 9.8 SSW 19 22 10 12 1004.6 1003.1 0.0
29/05:00am 22.9 18.8 2.4 26 9.8 SSW 13 19 7 10 1004.6 1003.1 0.0
29/04:30am 23.4 18.6 2.8 26 10.0 SSW 17 20 9 11 1004.5 1003.0 0.0
29/04:00am 23.5 18.8 2.9 26 10.0 SSW 17 20 9 11 1004.4 1002.9 0.0
29/03:30am 23.7 19.1 3.6 27 9.9 SSW 17 20 9 11 1004.4 1002.9 0.0
29/03:00am 22.6 18.6 2.7 27 9.6 SSW 13 15 7 8 1004.5 1003.0 0.0
29/02:30am 23.2 19.2 2.7 26 9.9 SSW 13 15 7 8 1004.6 1003.1 0.0
29/02:00am 24.8 20.1 2.9 24 10.8 SSW 17 20 9 11 1004.6 1003.1 0.0
29/01:30am 25.0 20.4 3.6 25 10.6 SSW 17 20 9 11 1004.9 1003.5 0.0
29/01:00am 24.5 20.4 4.3 27 10.2 SW 15 17 8 9 1005.2 1003.8 0.0
29/12:30am 24.7 20.7 5.0 28 10.0 SW 15 17 8 9 1005.4 1004.0 0.0
29/12:00am 24.2 21.3 4.6 28 9.9 SW 9 13 5 7 1005.8 1004.4 0.0
 
Date/Time
EST
Temp
°C
App
Temp
°C
Dew
Point
Rel
Hum
%
Delta-T
°C
Wind Press
QNH
hPa
Press
MSL
hPa
Rain
since 9 am
mm
Dir
 
Spd
km/h
Gust
km/h
Spd
kts
Gust
kts
28/11:30pm 24.9 21.1 5.7 29 9.9 SW 15 17 8 9 1005.7 1004.3 0.0
28/11:00pm 23.8 20.9 4.7 29 9.6 SSW 9 11 5 6 1005.6 1004.2 0.0
28/10:30pm 24.5 21.1 3.8 26 10.3 SSW 11 15 6 8 1005.4 1004.0 0.0
28/10:00pm 26.4 23.0 4.2 24 11.3 SSW 11 13 6 7 1005.3 1003.9 0.0
28/09:30pm 26.7 23.3 3.9 23 11.5 SSW 11 13 6 7 1004.8 1003.3 0.0
28/09:00pm 27.6 24.2 4.0 22 12.0 SSW 11 11 6 6 1004.8 1003.3 0.0
28/08:30pm 28.1 24.8 2.3 19 12.8 SSW 9 11 5 6 1004.6 1003.1 0.0
28/08:00pm 28.5 24.2 1.1 17 13.4 SSW 13 15 7 8 1004.1 1002.6 0.0
28/07:30pm 30.7 25.9 0.2 14 14.8 SSW 15 17 8 9 1003.7 1002.2 0.0
28/07:00pm 32.9 27.8 0.9 13 16.0 SSW 17 20 9 11 1003.3 1001.8 0.0
28/06:30pm 34.1 29.2 1.8 13 16.5 SSW 17 26 9 14 1002.9 1001.4 0.0
28/06:00pm 34.7 29.3 1.1 12 17.1 SSW 19 26 10 14 1002.7 1001.2 0.0
28/05:30pm 35.1 29.5 1.5 12 17.1 SSW 20 30 11 16 1002.5 1001.0 0.0
28/05:00pm 35.2 30.0 2.6 13 17.0 SW 19 28 10 15 1002.4 1000.9 0.0
28/04:30pm 35.0 29.6 2.5 13 16.8 SW 20 28 11 15 1002.1 1000.7 0.0
28/04:00pm 35.1 29.7 2.6 13 17.0 SW 20 35 11 19 1002.1 1000.7 0.0
28/03:30pm 35.5 30.2 2.9 13 17.1 SSW 20 32 11 17 1002.5 1001.0 0.0
28/03:00pm 34.2 29.3 1.9 13 16.6 S 17 26 9 14 1002.8 1001.3 0.0
28/02:30pm 34.2 28.3 1.9 13 16.5 SSW 22 30 12 16 1003.4 1001.9 0.0
28/02:00pm 34.1 29.0 2.8 14 16.3 S 19 28 10 15 1003.7 1002.2 0.0
28/01:30pm 33.4 28.0 2.3 14 15.9 SSE 20 32 11 17 1004.2 1002.7 0.0
28/01:00pm 32.9 27.0 1.9 14 15.8 SW 22 30 12 16 1004.7 1003.2 0.0
28/12:30pm 33.2 28.1 3.1 15 15.6 S 19 26 10 14 1004.9 1003.5 0.0
28/12:00pm 32.0 26.2 2.1 15 15.2 S 22 32 12 17 1005.3 1003.9 0.0
28/11:30am 31.4 25.8 3.4 17 14.4 S 22 30 12 16 1005.7 1004.3 0.0
28/11:00am 30.7 24.6 2.9 17 14.2 SSW 24 35 13 19 1006.0 1004.6 0.0
28/10:30am 30.6 25.6 4.4 19 13.7 SSW 20 28 11 15 1006.2 1004.8 0.0
28/10:00am 29.5 24.4 4.2 20 13.1 S 20 30 11 16 1006.4 1005.0 0.0
28/09:30am 28.4 23.2 3.3 20 12.7 S 20 32 11 17 1006.6 1005.2 0.0
28/09:00am 27.6 21.2 3.3 21 12.2 S 26 32 14 17 1006.6 1005.2 0.0
28/08:30am 26.8 20.4 3.3 22 11.7 S 26 35 14 19 1006.5 1005.1 0.0
28/08:00am 26.1 20.6 4.0 24 11.2 SSW 22 30 12 16 1006.4 1005.0 0.0
28/07:30am 24.9 20.4 4.1 26 10.4 SSW 17 24 9 13 1006.1 1004.7 0.0
28/07:00am 23.5 18.8 3.4 27 9.9 SSW 17 20 9 11 1006.0 1004.6 0.0
28/06:30am 21.9 17.8 2.1 27 9.3 S 13 17 7 9 1005.5 1004.1 0.0
28/06:00am 22.4 17.8 1.4 25 9.9 S 15 17 8 9 1005.3 1003.9 0.0
28/05:30am 23.1 19.2 1.4 24 10.2 S 11 13 6 7 1005.3 1003.9 0.0
28/05:00am 23.9 18.9 1.5 23 10.6 SSW 17 22 9 12 1005.0 1003.6 0.0
28/04:30am 24.5 19.2 2.0 23 10.8 SSW 19 24 10 13 1004.8 1003.3 0.0
28/04:00am 24.7 19.6 2.8 24 10.7 SSW 19 22 10 12 1004.7 1003.2 0.0
28/03:30am 24.4 19.7 3.1 25 10.4 SSW 17 22 9 12 1004.4 1002.9 0.0
28/03:00am 23.6 19.6 3.0 26 10.1 SSW 13 15 7 8 1004.5 1003.0 0.0
28/02:30am 23.5 19.5 2.9 26 10.0 SSW 13 13 7 7 1004.8 1003.3 0.0
28/02:00am 23.8 19.8 2.6 25 10.3 SSW 13 15 7 8 1005.0 1003.6 0.0
28/01:30am 24.9 20.9 3.0 24 10.7 SSW 13 17 7 9 1005.5 1004.1 0.0
28/01:00am 25.5 21.6 3.5 24 11.0 SSW 13 15 7 8 1005.8 1004.4 0.0
28/12:30am 25.6 21.3 3.5 24 11.0 SSW 15 17 8 9 1006.1 1004.7 0.0
28/12:00am 26.3 21.4 4.1 24 11.2 SSW 19 20 10 11 1006.1 1004.7 0.0
 
Date/Time
EST
Temp
°C
App
Temp
°C
Dew
Point
Rel
Hum
%
Delta-T
°C
Wind Press
QNH
hPa
Press
MSL
hPa
Rain
since 9 am
mm
Dir
 
Spd
km/h
Gust
km/h
Spd
kts
Gust
kts
27/11:30pm 25.9 22.1 3.8 24 11.1 SSW 13 15 7 8 1006.1 1004.7 0.0
27/11:00pm 26.8 22.9 3.3 22 11.8 SSW 13 13 7 7 1006.1 1004.7 0.0
27/10:30pm 27.3 23.0 3.1 21 12.1 SSW 15 17 8 9 1006.0 1004.6 0.0
27/10:00pm 27.9 24.0 3.6 21 12.3 SSW 13 17 7 9 1005.7 1004.3 0.0
27/09:30pm 27.9 23.8 4.2 22 12.1 SSW 15 17 8 9 1005.4 1004.0 0.0
27/09:00pm 28.2 24.0 3.8 21 12.4 SSW 15 17 8 9 1005.1 1003.7 0.0
27/08:30pm 29.1 25.1 3.1 19 13.1 SSW 13 15 7 8 1004.8 1003.3 0.0
27/08:00pm 30.3 26.1 1.7 16 14.3 SSW 13 15 7 8 1004.4 1002.9 0.0
27/07:30pm 32.1 27.5 1.3 14 15.4 SSW 15 17 8 9 1004.0 1002.5 0.0
27/07:00pm 33.8 28.3 1.6 13 16.4 SSW 20 24 11 13 1003.9 1002.4 0.0
27/06:30pm 34.8 29.4 2.3 13 16.8 SSW 20 30 11 16 1003.5 1002.0 0.0
27/06:00pm 35.6 29.2 3.0 13 17.2 SSW 26 37 14 20 1003.1 1001.6 0.0

Other Formats:

Comma delimited format used in spreadsheet applications
http://www.bom.gov.au/fwo/IDQ60801/IDQ60801.94335.axf

JavaScript Object Notation format (JSON) in row-major order
http://www.bom.gov.au/fwo/IDQ60801/IDQ60801.94335.json